createdAt,value
2023-03-25T00:01:20.337Z,57.71
2023-03-25T00:06:28.117Z,57.85
2023-03-25T00:11:31.699Z,58.11
2023-03-25T00:16:34.944Z,58.00
2023-03-25T00:21:40.058Z,58.13
2023-03-25T00:26:48.869Z,58.24
2023-03-25T00:31:52.803Z,58.19
2023-03-25T00:36:56.790Z,58.20
2023-03-25T00:42:02.466Z,58.39
2023-03-25T00:47:05.865Z,58.44
2023-03-25T00:52:09.655Z,58.25
2023-03-25T00:57:13.580Z,58.55
2023-03-25T01:02:19.169Z,58.67
2023-03-25T01:07:23.362Z,58.42
2023-03-25T01:12:27.415Z,58.35
2023-03-25T01:17:32.363Z,58.43
2023-03-25T01:22:36.199Z,58.41
2023-03-25T01:27:39.836Z,58.45
2023-03-25T01:32:43.297Z,58.57
2023-03-25T01:37:47.129Z,58.57
2023-03-25T01:42:50.899Z,58.47
2023-03-25T01:48:26.298Z,58.61
2023-03-25T01:53:32.460Z,58.48
2023-03-25T01:58:36.552Z,58.71
2023-03-25T02:03:46.350Z,58.73
2023-03-25T02:08:53.005Z,58.83
2023-03-25T02:14:03.007Z,58.79
2023-03-25T02:19:07.111Z,58.87
2023-03-25T02:24:20.219Z,59.04
2023-03-25T02:29:39.649Z,59.15
2023-03-25T02:35:21.693Z,59.12
2023-03-25T02:40:55.925Z,59.29
2023-03-25T02:46:04.179Z,59.41
2023-03-25T02:51:17.991Z,59.39
2023-03-25T02:56:44.910Z,59.73
2023-03-25T03:01:50.825Z,59.71
2023-03-25T03:06:58.209Z,59.80
2023-03-25T03:12:43.045Z,60.23
2023-03-25T03:17:58.442Z,60.23
2023-03-25T03:23:21.322Z,60.53
2023-03-25T03:28:34.832Z,60.71
2023-03-25T03:33:50.958Z,60.51
2023-03-25T03:39:02.045Z,60.57
2023-03-25T03:44:11.255Z,60.23
2023-03-25T03:49:21.330Z,60.27
2023-03-25T03:54:33.490Z,59.97
2023-03-25T03:59:47.958Z,59.55
2023-03-25T04:04:54.083Z,59.08
2023-03-25T04:10:15.040Z,58.45
2023-03-25T04:15:19.305Z,58.03
2023-03-25T04:20:30.041Z,57.76
2023-03-25T04:31:56.452Z,57.00
2023-03-25T04:37:00.117Z,57.08
2023-03-25T04:42:03.888Z,56.96
2023-03-25T04:47:15.181Z,56.39
2023-03-25T04:52:18.950Z,56.49
2023-03-25T04:57:22.472Z,56.61
2023-03-25T05:02:25.794Z,56.59
2023-03-25T05:07:30.228Z,56.60
2023-03-25T05:12:34.083Z,56.76
2023-03-25T05:18:14.357Z,56.87
2023-03-25T05:23:18.290Z,57.12
2023-03-25T05:28:21.713Z,57.27
2023-03-25T05:33:25.254Z,57.50
2023-03-25T05:38:28.730Z,57.85
2023-03-25T05:43:35.934Z,57.86
2023-03-25T05:48:41.702Z,58.10
2023-03-25T05:53:45.807Z,58.23
2023-03-25T05:58:51.189Z,58.19
2023-03-25T06:03:54.614Z,58.17
2023-03-25T06:08:59.004Z,58.39
2023-03-25T06:14:02.954Z,58.46
2023-03-25T06:19:09.702Z,58.46
2023-03-25T06:24:14.155Z,58.51
2023-03-25T06:29:17.589Z,58.65
2023-03-25T06:34:22.619Z,58.92
2023-03-25T06:39:33.943Z,59.04
2023-03-25T06:44:39.916Z,59.04
2023-03-25T06:50:11.539Z,59.23
2023-03-25T06:55:16.348Z,59.33
2023-03-25T07:00:23.776Z,59.33
2023-03-25T07:05:27.908Z,59.41
2023-03-25T07:10:32.662Z,59.69
2023-03-25T07:15:36.406Z,59.43
2023-03-25T07:20:39.841Z,59.21
2023-03-25T07:25:50.043Z,59.48
2023-03-25T07:30:53.523Z,59.13
2023-03-25T07:35:57.073Z,59.40
2023-03-25T07:41:04.644Z,59.81
2023-03-25T07:46:08.004Z,59.56
2023-03-25T07:51:15.002Z,59.61
2023-03-25T07:56:18.269Z,59.43
2023-03-25T08:01:22.090Z,59.24
2023-03-25T08:06:25.660Z,58.96
2023-03-25T08:11:28.994Z,58.94
2023-03-25T08:16:32.404Z,58.71
2023-03-25T08:21:36.471Z,58.39
2023-03-25T08:26:39.867Z,58.25
2023-03-25T08:31:47.145Z,57.91
2023-03-25T08:36:50.893Z,58.06
2023-03-25T08:41:54.907Z,58.47
2023-03-25T08:46:58.319Z,58.69
2023-03-25T08:52:02.196Z,59.07
2023-03-25T08:57:06.323Z,59.25
2023-03-25T09:02:12.366Z,58.53
2023-03-25T09:07:16.173Z,58.18
2023-03-25T09:12:19.762Z,57.24
2023-03-25T09:17:23.283Z,56.61
2023-03-25T09:22:26.858Z,55.46
2023-03-25T09:27:30.308Z,54.07
2023-03-25T09:32:34.613Z,52.95
2023-03-25T09:37:38.094Z,51.84
2023-03-25T09:43:06.558Z,50.20
2023-03-25T09:48:33.612Z,50.13
2023-03-25T09:53:40.868Z,49.84
2023-03-25T09:58:51.068Z,48.59
2023-03-25T10:04:17.532Z,49.14
2023-03-25T10:09:39.042Z,48.53
2023-03-25T10:14:56.881Z,48.27
2023-03-25T10:20:36.938Z,47.43
2023-03-25T10:25:46.206Z,47.36
2023-03-25T10:30:53.816Z,46.27
2023-03-25T10:36:00.372Z,45.98
2023-03-25T10:41:27.849Z,45.49
2023-03-25T10:46:47.868Z,46.00
2023-03-25T10:52:05.017Z,44.98
2023-03-25T10:57:23.351Z,45.59
2023-03-25T11:02:39.821Z,45.06
2023-03-25T11:13:44.657Z,43.80
2023-03-25T11:18:49.686Z,43.19
2023-03-25T11:23:54.606Z,41.98
2023-03-25T11:29:44.765Z,42.19
2023-03-25T11:35:21.838Z,42.51
2023-03-25T11:43:04.701Z,41.11
2023-03-25T11:48:39.394Z,40.97
2023-03-25T11:54:09.314Z,41.38
2023-03-25T11:59:37.064Z,42.15
2023-03-25T12:05:02.300Z,42.77
2023-03-25T12:10:10.299Z,44.02
2023-03-25T12:15:29.758Z,45.76
2023-03-25T12:21:12.001Z,46.78
2023-03-25T12:27:16.410Z,47.80
2023-03-25T12:33:43.112Z,49.62
2023-03-25T12:45:04.453Z,52.07
2023-03-25T12:50:14.267Z,52.67
2023-03-25T12:55:35.983Z,53.60
2023-03-25T13:01:23.143Z,53.95
2023-03-25T13:06:35.132Z,54.29
2023-03-25T13:11:59.266Z,54.06
2023-03-25T13:17:11.021Z,53.40
2023-03-25T13:22:20.121Z,53.33
2023-03-25T13:27:23.869Z,50.92
2023-03-25T13:32:34.756Z,47.47
2023-03-25T13:37:53.634Z,45.38
2023-03-25T13:43:07.045Z,45.01
2023-03-25T13:48:37.467Z,43.47
2023-03-25T13:54:25.740Z,45.63
2023-03-25T13:59:52.222Z,44.27
2023-03-25T14:05:35.289Z,43.43
2023-03-25T14:11:33.827Z,43.75
2023-03-25T14:16:43.258Z,44.71
2023-03-25T14:21:52.397Z,44.49
2023-03-25T14:27:06.077Z,44.96
2023-03-25T14:32:10.011Z,44.97
2023-03-25T14:37:21.894Z,45.10
2023-03-25T14:42:29.384Z,45.51
2023-03-25T14:47:35.767Z,45.74
2023-03-25T14:52:45.975Z,46.43
2023-03-25T14:57:52.702Z,46.76
2023-03-25T15:03:10.860Z,47.03
2023-03-25T15:08:18.019Z,46.99
2023-03-25T15:13:27.627Z,47.59
2023-03-25T15:18:37.406Z,48.01
2023-03-25T15:24:02.412Z,48.22
2023-03-25T15:29:32.687Z,48.73
2023-03-25T15:35:01.045Z,49.35
2023-03-25T15:43:15.397Z,48.29
2023-03-25T15:48:46.942Z,45.35
2023-03-25T15:54:04.185Z,44.51
2023-03-25T15:59:33.063Z,44.91
2023-03-25T16:04:42.460Z,43.30
2023-03-25T16:09:50.072Z,43.01
2023-03-25T16:14:53.725Z,42.72
2023-03-25T16:19:58.543Z,42.43
2023-03-25T16:25:27.313Z,43.32
2023-03-25T16:30:42.142Z,43.90
2023-03-25T16:36:10.433Z,44.35
2023-03-25T16:42:49.472Z,44.29
2023-03-25T16:47:55.276Z,43.92
2023-03-25T16:53:03.282Z,44.08
2023-03-25T16:58:16.710Z,43.94
2023-03-25T17:03:41.031Z,44.02
2023-03-25T17:08:48.838Z,44.56
2023-03-25T17:13:58.446Z,45.02
2023-03-25T17:19:04.710Z,45.30
2023-03-25T17:24:24.488Z,45.86
2023-03-25T17:29:30.598Z,45.95
2023-03-25T17:34:43.048Z,46.33
2023-03-25T17:43:09.088Z,47.20
2023-03-25T17:48:17.706Z,47.38
2023-03-25T17:53:22.121Z,47.68
2023-03-25T17:58:26.311Z,48.35
2023-03-25T19:05:32.085Z,51.84
2023-03-25T19:10:46.333Z,51.88
2023-03-25T19:15:50.362Z,52.30
2023-03-25T19:20:54.691Z,52.45
2023-03-25T19:26:01.323Z,52.78
2023-03-25T19:31:06.909Z,53.12
2023-03-25T19:36:19.186Z,53.03
2023-03-25T19:42:50.107Z,54.01
2023-03-25T19:47:54.511Z,54.62
2023-03-25T19:53:06.315Z,54.21
2023-03-25T19:58:11.684Z,54.55
2023-03-25T20:03:22.603Z,56.09
2023-03-25T20:08:27.242Z,56.32
2023-03-25T20:13:30.885Z,56.34
2023-03-25T20:18:34.146Z,55.49
2023-03-25T20:23:37.840Z,55.10
2023-03-25T20:28:41.202Z,54.84
2023-03-25T20:33:45.221Z,54.63
2023-03-25T20:38:57.178Z,54.51
2023-03-25T20:44:01.772Z,54.15
2023-03-25T20:49:09.091Z,54.02
2023-03-25T20:54:17.376Z,53.88
2023-03-25T20:59:21.070Z,53.78
2023-03-25T21:04:25.080Z,53.77
2023-03-25T21:09:28.670Z,53.77
2023-03-25T21:14:32.181Z,53.79
2023-03-25T21:19:35.579Z,53.64
2023-03-25T21:24:38.900Z,53.41
2023-03-25T21:29:42.189Z,53.19
2023-03-25T21:34:45.595Z,52.91
2023-03-25T21:39:50.588Z,52.53
2023-03-25T21:44:53.759Z,52.32
2023-03-25T21:49:57.216Z,52.01
2023-03-25T21:55:01.060Z,51.77
2023-03-25T22:00:06.112Z,51.51
2023-03-25T22:05:17.100Z,51.29
2023-03-25T22:10:20.721Z,50.93
2023-03-25T22:15:24.110Z,50.89
2023-03-25T22:20:27.572Z,50.53
2023-03-25T22:25:31.274Z,50.60
2023-03-25T22:30:35.527Z,50.76
2023-03-25T22:35:38.936Z,50.94
2023-03-25T22:40:45.264Z,51.00
2023-03-25T22:45:48.842Z,50.97
2023-03-25T22:50:52.202Z,51.12
2023-03-25T22:55:56.951Z,51.41
2023-03-25T23:01:03.149Z,51.48
2023-03-25T23:06:08.193Z,51.56
2023-03-25T23:11:24.227Z,51.37
2023-03-25T23:16:31.037Z,51.17
2023-03-25T23:21:34.774Z,51.22
2023-03-25T23:26:40.525Z,51.16
2023-03-25T23:31:44.689Z,51.19
2023-03-25T23:36:48.227Z,50.99
2023-03-25T23:41:52.006Z,50.93
2023-03-25T23:46:56.138Z,50.97
2023-03-25T23:52:00.499Z,51.19
2023-03-25T23:57:04.141Z,51.40
